Time;durP1;ratioP1;P1;durP2;ratioP2;P2;SDS_P1;SDS_P2;PMS_P1;PMS_P2;Temp;Humidity;BMP_temperature;BMP_pressure;BME280_temperature;BME280_humidity;BME280_pressure;Samples;Min_cycle;Max_cycle;Signal;HPM_P1;HPM_P2
2023/09/18 00:00:56;;;;;;;62.83;42.22;;;18.80;99.90;;;;;;5091635;28;20059;-67
2023/09/18 00:03:24;;;;;;;55.47;39.58;;;18.90;99.90;;;;;;5091749;28;20055;-66
2023/09/18 00:05:51;;;;;;;52.38;38.25;;;18.90;99.90;;;;;;5091487;28;20028;-67
2023/09/18 00:08:18;;;;;;;51.25;35.63;;;19.00;99.90;;;;;;5091962;28;20028;-67
2023/09/18 00:10:53;;;;;;;49.38;35.60;;;19.00;99.90;;;;;;5090503;28;20084;-68
2023/09/18 00:13:19;;;;;;;45.47;34.53;;;19.00;99.90;;;;;;5086036;28;20433;-67
2023/09/18 00:15:46;;;;;;;44.80;33.45;;;19.10;99.90;;;;;;5093052;28;20465;-67
2023/09/18 00:18:15;;;;;;;47.42;33.30;;;19.10;99.90;;;;;;5092937;28;20016;-66
2023/09/18 00:20:42;;;;;;;42.28;31.92;;;19.20;99.90;;;;;;5093130;28;20036;-67
2023/09/18 00:23:09;;;;;;;41.35;31.08;;;19.20;99.90;;;;;;5092906;28;20032;-68
2023/09/18 00:25:34;;;;;;;38.10;28.77;;;19.20;99.90;;;;;;5092821;28;20051;-66
2023/09/18 00:28:00;;;;;;;35.25;28.25;;;19.30;99.90;;;;;;5092777;28;20436;-66
2023/09/18 00:30:25;;;;;;;36.97;27.13;;;19.30;99.90;;;;;;5092886;28;20036;-67
2023/09/18 00:32:51;;;;;;;34.63;27.55;;;19.30;99.90;;;;;;5087666;28;20102;-67
2023/09/18 00:35:17;;;;;;;34.40;26.90;;;19.40;99.90;;;;;;5079864;28;20036;-67
2023/09/18 00:37:43;;;;;;;36.28;27.65;;;19.40;99.90;;;;;;5072207;28;20107;-67
2023/09/18 00:40:10;;;;;;;35.65;27.50;;;19.40;99.90;;;;;;5081082;28;20084;-68
2023/09/18 00:42:36;;;;;;;34.25;27.55;;;19.40;99.90;;;;;;5072722;28;20025;-66
2023/09/18 00:45:02;;;;;;;34.22;26.63;;;19.40;99.90;;;;;;5072971;28;20043;-66
2023/09/18 00:47:28;;;;;;;31.77;26.23;;;19.40;99.90;;;;;;5072309;28;20061;-67
2023/09/18 00:49:55;;;;;;;36.03;28.42;;;19.40;99.90;;;;;;5072415;28;20094;-66
2023/09/18 00:52:22;;;;;;;37.42;27.40;;;19.40;99.90;;;;;;5072637;28;20136;-67
2023/09/18 00:54:48;;;;;;;37.40;27.40;;;19.50;99.90;;;;;;5089960;28;20547;-66
2023/09/18 00:57:14;;;;;;;34.72;27.67;;;19.50;99.90;;;;;;5086397;28;20036;-66
2023/09/18 00:59:40;;;;;;;34.97;27.90;;;19.50;99.90;;;;;;5091175;28;20024;-66
2023/09/18 01:02:06;;;;;;;37.13;27.63;;;19.50;99.90;;;;;;5088359;28;20565;-67
2023/09/18 01:04:33;;;;;;;32.95;25.67;;;19.50;99.90;;;;;;5089918;28;20016;-68
2023/09/18 01:07:03;;;;;;;32.00;26.17;;;19.50;99.90;;;;;;5095162;28;20032;-67
2023/09/18 01:09:32;;;;;;;33.05;26.50;;;19.50;99.90;;;;;;5092651;28;20035;-67
2023/09/18 01:12:02;;;;;;;35.55;27.20;;;19.50;99.90;;;;;;5093130;28;20460;-67
2023/09/18 01:14:38;;;;;;;36.08;27.55;;;19.50;99.90;;;;;;5084764;28;20036;-67
2023/09/18 01:17:06;;;;;;;32.28;25.73;;;19.60;99.90;;;;;;5105764;28;20034;-67
2023/09/18 01:19:46;;;;;;;32.25;26.42;;;19.60;99.90;;;;;;5091720;28;20039;-67
2023/09/18 01:22:15;;;;;;;33.20;26.05;;;19.60;99.90;;;;;;5091745;28;20389;-67
2023/09/18 01:24:44;;;;;;;30.33;25.25;;;19.60;99.90;;;;;;5094282;28;20020;-67
2023/09/18 01:27:14;;;;;;;31.40;25.40;;;19.60;99.90;;;;;;5092625;28;20023;-66
2023/09/18 01:29:40;;;;;;;31.73;25.10;;;19.60;99.90;;;;;;5091548;28;20020;-67
2023/09/18 01:32:06;;;;;;;30.80;24.90;;;19.60;99.90;;;;;;5091165;28;20084;-67
2023/09/18 01:34:36;;;;;;;30.13;23.65;;;19.60;99.90;;;;;;5094460;28;20039;-66
2023/09/18 01:37:08;;;;;;;31.02;24.30;;;19.60;99.90;;;;;;5094874;28;20104;-67
2023/09/18 01:39:35;;;;;;;28.65;22.83;;;19.60;99.90;;;;;;5094579;28;20055;-66
2023/09/18 01:42:09;;;;;;;28.20;22.65;;;19.60;99.90;;;;;;5095127;28;20048;-67
2023/09/18 01:44:39;;;;;;;28.17;22.15;;;19.60;99.90;;;;;;5094990;28;20121;-67
2023/09/18 01:47:08;;;;;;;28.75;23.10;;;19.60;99.90;;;;;;5096602;28;20008;-66
2023/09/18 01:49:36;;;;;;;25.33;21.45;;;19.70;99.90;;;;;;5094560;28;20044;-66
2023/09/18 01:52:03;;;;;;;28.40;22.60;;;19.70;99.90;;;;;;5094304;28;20475;-66
2023/09/18 01:54:29;;;;;;;33.22;23.50;;;19.70;99.90;;;;;;5094900;28;20116;-66
2023/09/18 01:56:55;;;;;;;27.15;22.80;;;19.70;99.90;;;;;;5094771;28;20020;-67
2023/09/18 01:59:22;;;;;;;28.73;21.73;;;19.80;99.90;;;;;;5094752;28;20467;-67
2023/09/18 02:01:49;;;;;;;26.02;21.20;;;19.80;99.90;;;;;;5094603;28;20032;-67
2023/09/18 02:04:14;;;;;;;27.33;22.23;;;19.80;99.90;;;;;;5095055;28;20369;-66
2023/09/18 02:06:40;;;;;;;29.27;21.15;;;19.90;99.90;;;;;;5095049;28;20078;-66
2023/09/18 02:09:08;;;;;;;26.08;21.08;;;19.90;99.90;;;;;;5094341;28;20024;-67
2023/09/18 02:11:39;;;;;;;28.50;22.17;;;20.00;99.90;;;;;;5094454;28;20069;-67
2023/09/18 02:14:05;;;;;;;28.85;21.95;;;20.00;99.90;;;;;;5091850;28;20032;-66
2023/09/18 02:16:33;;;;;;;26.02;21.63;;;20.00;99.90;;;;;;5094046;28;20016;-67
2023/09/18 02:18:59;;;;;;;26.98;21.38;;;20.00;99.90;;;;;;5094118;28;20043;-66
2023/09/18 02:21:25;;;;;;;28.00;21.20;;;20.00;99.90;;;;;;5094447;28;20032;-66
2023/09/18 02:23:51;;;;;;;26.33;21.33;;;20.10;99.90;;;;;;5094237;28;20023;-67
2023/09/18 02:26:18;;;;;;;26.08;20.95;;;20.10;99.90;;;;;;5093949;28;20024;-66
2023/09/18 02:28:43;;;;;;;27.10;20.50;;;20.10;99.90;;;;;;5094013;28;20038;-67
2023/09/18 02:31:09;;;;;;;25.50;19.77;;;20.00;99.90;;;;;;5094093;28;20020;-67
2023/09/18 02:33:35;;;;;;;28.50;21.48;;;20.10;99.90;;;;;;5094051;28;20030;-67
2023/09/18 02:36:00;;;;;;;26.08;20.23;;;20.10;99.90;;;;;;5093703;28;20046;-67
2023/09/18 02:38:27;;;;;;;28.90;20.35;;;20.10;99.90;;;;;;5093989;28;20046;-66
2023/09/18 02:40:53;;;;;;;28.00;21.13;;;20.20;99.90;;;;;;5093982;28;20027;-67
2023/09/18 02:43:20;;;;;;;27.88;20.67;;;20.20;99.90;;;;;;5093910;28;20063;-67
2023/09/18 02:45:46;;;;;;;27.73;20.58;;;20.20;99.90;;;;;;5093844;28;20048;-66
2023/09/18 02:48:11;;;;;;;25.65;20.83;;;20.20;99.90;;;;;;5093688;28;20048;-68
2023/09/18 02:50:37;;;;;;;28.13;21.15;;;20.20;99.90;;;;;;5094025;28;20109;-66
2023/09/18 02:53:06;;;;;;;26.45;19.98;;;20.20;99.90;;;;;;5088911;28;20036;-66
2023/09/18 02:55:32;;;;;;;26.67;20.55;;;20.20;99.90;;;;;;5092038;28;20047;-66
2023/09/18 02:57:58;;;;;;;25.48;19.92;;;20.20;99.90;;;;;;5093699;28;20497;-66
2023/09/18 03:00:24;;;;;;;27.50;20.70;;;20.20;99.90;;;;;;5089482;28;20475;-67
2023/09/18 03:02:52;;;;;;;27.23;20.70;;;20.20;99.90;;;;;;5091793;28;20050;-67
2023/09/18 03:05:18;;;;;;;29.00;21.75;;;20.20;99.90;;;;;;5093704;28;20372;-67
2023/09/18 03:07:44;;;;;;;27.15;21.38;;;20.20;99.90;;;;;;5093621;28;20023;-67
2023/09/18 03:10:13;;;;;;;27.30;20.52;;;20.20;99.90;;;;;;5093176;28;20464;-67
2023/09/18 03:12:39;;;;;;;25.85;20.30;;;20.20;99.90;;;;;;5093100;28;20047;-67
2023/09/18 03:15:07;;;;;;;28.30;21.90;;;20.20;99.90;;;;;;5090759;28;20020;-67
2023/09/18 03:17:33;;;;;;;30.35;22.08;;;20.20;99.90;;;;;;5093088;28;20020;-65
2023/09/18 03:19:58;;;;;;;31.42;22.65;;;20.20;99.90;;;;;;5093371;28;20467;-66
2023/09/18 03:22:25;;;;;;;30.90;21.88;;;20.10;99.90;;;;;;5090416;28;20459;-65
2023/09/18 03:24:51;;;;;;;32.95;23.65;;;20.00;99.90;;;;;;5093291;28;20028;-64
2023/09/18 03:27:16;;;;;;;28.17;23.20;;;19.90;99.90;;;;;;5093336;28;20026;-66
2023/09/18 03:29:42;;;;;;;31.33;25.30;;;19.80;99.90;;;;;;5092175;28;20046;-65
2023/09/18 03:32:11;;;;;;;34.88;25.60;;;19.70;99.90;;;;;;5093154;28;20051;-65
2023/09/18 03:34:37;;;;;;;34.08;26.75;;;19.70;99.90;;;;;;5094139;28;20063;-66
2023/09/18 03:37:03;;;;;;;33.17;26.52;;;19.60;99.90;;;;;;5092803;28;20397;-65
2023/09/18 03:39:29;;;;;;;33.38;27.17;;;19.60;99.90;;;;;;5094235;28;20026;-66
2023/09/18 03:41:54;;;;;;;38.50;28.85;;;19.60;99.90;;;;;;5102601;28;20031;-65
2023/09/18 03:44:21;;;;;;;37.83;28.73;;;19.60;99.90;;;;;;5101244;28;20028;-65
2023/09/18 03:46:46;;;;;;;41.45;30.77;;;19.50;99.90;;;;;;5109201;28;20023;-65
2023/09/18 03:49:12;;;;;;;39.63;29.75;;;19.50;99.90;;;;;;5096431;28;20044;-66
2023/09/18 03:51:37;;;;;;;38.33;30.20;;;19.50;99.90;;;;;;5106982;28;20035;-65
2023/09/18 03:54:03;;;;;;;38.75;31.80;;;19.40;99.90;;;;;;5103179;28;20024;-64
2023/09/18 03:56:28;;;;;;;40.50;32.22;;;19.40;99.90;;;;;;5099916;28;20486;-66
2023/09/18 03:58:54;;;;;;;40.85;32.72;;;19.40;99.90;;;;;;5089603;28;20068;-66
2023/09/18 04:01:19;;;;;;;42.55;32.03;;;19.40;99.90;;;;;;5098096;28;20027;-66
2023/09/18 04:03:45;;;;;;;45.00;34.42;;;19.40;99.90;;;;;;5105707;28;20020;-65
2023/09/18 04:06:10;;;;;;;46.53;35.67;;;19.40;99.90;;;;;;5102103;28;20027;-65
2023/09/18 04:08:36;;;;;;;48.05;35.58;;;19.40;99.90;;;;;;5098756;28;20032;-65
2023/09/18 04:11:04;;;;;;;43.92;34.42;;;19.40;99.90;;;;;;5109810;28;20030;-65
2023/09/18 04:13:29;;;;;;;50.85;35.88;;;19.40;99.90;;;;;;5098007;28;20042;-65
2023/09/18 04:15:56;;;;;;;52.10;31.90;;;19.30;99.90;;;;;;5104661;28;20456;-66
2023/09/18 04:18:25;;;;;;;52.22;37.55;;;19.20;99.90;;;;;;5105367;28;20485;-66
2023/09/18 04:20:51;;;;;;;51.95;34.38;;;19.20;99.90;;;;;;5096728;28;20031;-66
2023/09/18 04:23:19;;;;;;;53.63;34.72;;;19.10;99.90;;;;;;5109749;28;20024;-65
2023/09/18 04:25:45;;;;;;;79.97;39.50;;;19.10;99.90;;;;;;5100227;28;20020;-68
2023/09/18 04:28:12;;;;;;;50.97;35.40;;;19.10;99.90;;;;;;5102357;28;20103;-66
2023/09/18 04:30:38;;;;;;;46.17;32.40;;;19.10;99.90;;;;;;5106617;28;20027;-66
2023/09/18 04:33:04;;;;;;;42.78;29.20;;;19.10;99.90;;;;;;5096496;28;20036;-66
2023/09/18 04:35:31;;;;;;;38.80;27.77;;;19.20;99.90;;;;;;5108169;28;20073;-66
2023/09/18 04:37:59;;;;;;;36.55;21.10;;;19.20;99.90;;;;;;5102061;28;20056;-66
2023/09/18 04:40:26;;;;;;;33.25;19.50;;;19.20;99.90;;;;;;5101943;28;20122;-66
2023/09/18 04:42:52;;;;;;;31.65;20.00;;;19.10;99.90;;;;;;5113705;28;20027;-66
2023/09/18 04:45:18;;;;;;;33.38;19.88;;;19.10;99.90;;;;;;5083827;28;20023;-66
2023/09/18 04:47:43;;;;;;;31.83;21.80;;;19.10;99.90;;;;;;5110325;28;20081;-65
2023/09/18 04:50:10;;;;;;;31.60;21.88;;;19.10;99.90;;;;;;5107392;28;20093;-67
2023/09/18 04:52:36;;;;;;;37.00;27.52;;;19.10;99.90;;;;;;5102640;28;20105;-67
2023/09/18 04:55:01;;;;;;;41.65;29.35;;;19.10;99.90;;;;;;5113991;28;20436;-67
2023/09/18 04:57:27;;;;;;;42.75;29.35;;;19.10;99.90;;;;;;5101344;28;20056;-68
2023/09/18 04:59:52;;;;;;;48.85;31.23;;;19.10;99.90;;;;;;5108694;28;20023;-68
2023/09/18 05:02:18;;;;;;;44.78;31.17;;;19.10;99.90;;;;;;5109011;28;20027;-67
2023/09/18 05:04:44;;;;;;;51.53;33.80;;;19.10;99.90;;;;;;5101484;28;20024;-67
2023/09/18 05:07:09;;;;;;;53.05;36.10;;;19.10;99.90;;;;;;5105183;28;20105;-66
2023/09/18 05:09:35;;;;;;;57.97;41.50;;;19.10;99.90;;;;;;5106540;28;20032;-67
2023/09/18 05:12:02;;;;;;;62.65;41.88;;;19.10;99.90;;;;;;5106856;28;20035;-67
2023/09/18 05:14:28;;;;;;;63.25;41.63;;;19.10;99.90;;;;;;5100408;28;20057;-66
2023/09/18 05:16:53;;;;;;;65.40;42.25;;;19.10;99.90;;;;;;5100428;28;20024;-67
2023/09/18 05:19:19;;;;;;;65.28;44.40;;;19.10;99.90;;;;;;5112976;28;20038;-67
2023/09/18 05:21:44;;;;;;;66.78;43.22;;;19.00;99.90;;;;;;5102356;28;20059;-67
2023/09/18 05:24:10;;;;;;;64.68;41.75;;;19.00;99.90;;;;;;5105596;28;20024;-69
2023/09/18 05:26:35;;;;;;;63.78;42.08;;;19.00;99.90;;;;;;5110195;28;20506;-68
2023/09/18 05:29:01;;;;;;;67.28;41.70;;;19.10;99.90;;;;;;5099437;28;20511;-68
2023/09/18 05:31:26;;;;;;;57.28;37.13;;;19.00;99.90;;;;;;5111624;28;20460;-67
2023/09/18 05:33:52;;;;;;;53.13;33.78;;;19.00;99.90;;;;;;5104329;28;20476;-67
2023/09/18 05:36:17;;;;;;;46.72;30.73;;;19.00;99.90;;;;;;5103103;28;20111;-67
2023/09/18 05:38:43;;;;;;;44.63;27.67;;;19.00;99.90;;;;;;5111361;28;20024;-66
2023/09/18 05:41:09;;;;;;;31.00;18.73;;;19.00;99.90;;;;;;5096190;28;20476;-67
2023/09/18 05:43:35;;;;;;;26.38;14.90;;;19.00;99.90;;;;;;5096282;28;20020;-67
2023/09/18 05:46:01;;;;;;;27.80;14.13;;;19.00;99.90;;;;;;5096658;28;20024;-67
2023/09/18 05:48:27;;;;;;;28.52;13.52;;;18.90;99.90;;;;;;5095364;28;20028;-67
2023/09/18 05:50:54;;;;;;;24.67;12.43;;;18.90;99.90;;;;;;5112029;28;20403;-67
2023/09/18 05:53:20;;;;;;;26.75;13.45;;;18.90;99.90;;;;;;5098082;28;20106;-67
2023/09/18 05:55:45;;;;;;;29.50;13.88;;;18.90;99.90;;;;;;5105707;28;20437;-66
2023/09/18 05:58:11;;;;;;;27.50;15.07;;;18.90;99.90;;;;;;5104276;28;20027;-67
2023/09/18 06:00:37;;;;;;;28.52;13.43;;;18.90;99.90;;;;;;5109769;28;20077;-67
2023/09/18 06:03:03;;;;;;;30.10;14.55;;;18.90;99.90;;;;;;5098449;28;20028;-67
2023/09/18 06:05:31;;;;;;;29.45;13.35;;;18.90;99.90;;;;;;5091277;28;20024;-66
2023/09/18 06:07:56;;;;;;;27.10;13.77;;;19.00;99.90;;;;;;5103230;28;20027;-66
2023/09/18 06:10:22;;;;;;;30.00;13.52;;;19.00;99.90;;;;;;5102850;28;20073;-66
2023/09/18 06:12:48;;;;;;;30.80;15.45;;;19.00;99.90;;;;;;5103605;28;20472;-65
2023/09/18 06:15:14;;;;;;;28.65;14.25;;;19.00;99.90;;;;;;5095821;28;20047;-66
2023/09/18 06:17:41;;;;;;;32.83;16.50;;;19.00;99.90;;;;;;5101521;28;20076;-67
2023/09/18 06:20:12;;;;;;;25.33;15.00;;;19.00;99.90;;;;;;5103266;28;20441;-67
2023/09/18 06:22:39;;;;;;;24.73;14.35;;;19.00;99.90;;;;;;5109666;28;20102;-65
2023/09/18 06:25:11;;;;;;;29.15;16.35;;;19.10;99.90;;;;;;5113244;27;20069;-67
2023/09/18 06:27:37;;;;;;;27.75;16.92;;;19.10;99.90;;;;;;5094691;28;20032;-68
2023/09/18 06:30:06;;;;;;;27.33;17.00;;;19.10;99.90;;;;;;5104447;28;20435;-65
2023/09/18 06:32:32;;;;;;;26.92;17.38;;;19.10;99.90;;;;;;5101241;28;20127;-66
2023/09/18 06:34:58;;;;;;;33.63;19.13;;;19.10;99.90;;;;;;5111443;28;20119;-67
2023/09/18 06:37:24;;;;;;;36.00;23.40;;;19.10;99.90;;;;;;5098603;28;20460;-66
2023/09/18 06:39:51;;;;;;;32.10;19.60;;;19.10;99.90;;;;;;5106983;28;20496;-68
2023/09/18 06:42:16;;;;;;;38.08;22.20;;;19.10;99.90;;;;;;5106603;28;20023;-66
2023/09/18 06:44:42;;;;;;;45.33;24.48;;;19.10;99.90;;;;;;5099600;28;20073;-66
2023/09/18 06:47:07;;;;;;;39.17;23.38;;;19.10;99.90;;;;;;5111060;28;20024;-66
2023/09/18 06:49:34;;;;;;;37.83;22.98;;;19.10;99.90;;;;;;5099456;28;20046;-66
2023/09/18 06:51:59;;;;;;;37.80;25.27;;;19.10;99.90;;;;;;5103855;28;20043;-66
2023/09/18 06:54:25;;;;;;;36.70;25.10;;;19.10;99.90;;;;;;5106262;28;20020;-67
2023/09/18 06:56:51;;;;;;;41.13;26.05;;;19.10;99.90;;;;;;5096744;28;20032;-67
2023/09/18 06:59:16;;;;;;;41.25;26.30;;;19.10;99.90;;;;;;5111869;28;20077;-67
2023/09/18 07:01:42;;;;;;;39.70;26.90;;;19.20;99.90;;;;;;5096823;28;20031;-66
2023/09/18 07:04:08;;;;;;;39.25;26.25;;;19.30;99.90;;;;;;5102535;28;20073;-67
2023/09/18 07:06:34;;;;;;;41.72;25.88;;;19.40;99.90;;;;;;5108515;28;20046;-67
2023/09/18 07:08:59;;;;;;;38.38;24.63;;;19.40;99.90;;;;;;5097630;28;20463;-67
2023/09/18 07:11:25;;;;;;;34.35;23.17;;;19.50;99.90;;;;;;5109827;28;20056;-67
2023/09/18 07:13:51;;;;;;;31.30;22.23;;;19.60;99.90;;;;;;5102454;28;20062;-67
2023/09/18 07:16:16;;;;;;;33.35;22.70;;;19.70;99.90;;;;;;5102339;28;20024;-69
2023/09/18 07:18:42;;;;;;;30.92;21.90;;;19.70;99.90;;;;;;5100021;28;20021;-67
2023/09/18 07:21:07;;;;;;;27.92;20.17;;;19.80;99.90;;;;;;5091062;28;20028;-67
2023/09/18 07:23:36;;;;;;;27.92;18.90;;;19.80;99.90;;;;;;5107927;28;20550;-67
2023/09/18 07:26:02;;;;;;;28.25;20.05;;;19.70;99.90;;;;;;5087500;28;20074;-66
2023/09/18 07:28:28;;;;;;;26.55;18.40;;;19.70;99.90;;;;;;5096498;28;20476;-66
2023/09/18 07:30:54;;;;;;;29.02;19.45;;;19.70;99.90;;;;;;5110226;28;20051;-67
2023/09/18 07:33:19;;;;;;;27.40;19.83;;;19.70;99.90;;;;;;5110287;28;20044;-67
2023/09/18 07:35:51;;;;;;;26.60;18.75;;;19.80;99.90;;;;;;5100343;28;20031;-67
2023/09/18 07:38:18;;;;;;;27.60;19.17;;;19.80;99.90;;;;;;5102406;28;20032;-66
2023/09/18 07:40:47;;;;;;;26.38;18.80;;;19.80;99.90;;;;;;5108948;28;20024;-66
2023/09/18 07:43:13;;;;;;;26.90;18.98;;;19.80;99.90;;;;;;5113676;28;20031;-67
2023/09/18 07:45:39;;;;;;;25.27;18.17;;;19.80;99.90;;;;;;5107401;28;20100;-66
2023/09/18 07:48:08;;;;;;;25.45;17.70;;;19.90;99.90;;;;;;5103355;28;20034;-66
2023/09/18 07:50:35;;;;;;;25.48;16.48;;;20.30;99.90;;;;;;5099154;28;20101;-67
2023/09/18 07:53:01;;;;;;;21.17;14.73;;;20.60;99.90;;;;;;5109856;28;20039;-67
2023/09/18 07:55:27;;;;;;;22.73;14.38;;;21.00;99.90;;;;;;5097844;28;20467;-67
2023/09/18 07:57:53;;;;;;;19.48;12.82;;;21.40;99.90;;;;;;5105022;28;20024;-67
2023/09/18 08:00:19;;;;;;;20.27;13.40;;;21.70;99.90;;;;;;5105054;28;20065;-69
2023/09/18 08:02:48;;;;;;;19.42;12.68;;;21.80;99.90;;;;;;5096192;28;20027;-69
2023/09/18 08:05:14;;;;;;;16.85;11.18;;;21.80;99.90;;;;;;5095052;28;20024;-66
2023/09/18 08:07:40;;;;;;;17.65;11.60;;;22.00;99.90;;;;;;5090414;28;20027;-69
2023/09/18 08:10:08;;;;;;;19.00;12.20;;;21.90;99.90;;;;;;5113643;28;20019;-68
2023/09/18 08:12:35;;;;;;;17.73;10.40;;;21.80;99.90;;;;;;5109396;28;20032;-66
2023/09/18 08:15:02;;;;;;;17.13;10.23;;;21.80;99.90;;;;;;5096003;28;20024;-66
2023/09/18 08:17:28;;;;;;;15.40;9.52;;;22.00;99.90;;;;;;5106498;28;20107;-67
2023/09/18 08:19:54;;;;;;;13.82;8.18;;;22.50;99.90;;;;;;5102620;28;20062;-66
2023/09/18 08:22:20;;;;;;;17.23;8.40;;;23.00;99.90;;;;;;5101031;28;20062;-68
2023/09/18 08:24:48;;;;;;;10.93;6.05;;;23.30;99.90;;;;;;5108600;28;20077;-67
2023/09/18 08:27:16;;;;;;;10.73;6.05;;;24.00;99.90;;;;;;5096392;28;20032;-68
2023/09/18 08:29:43;;;;;;;9.20;5.15;;;24.30;99.90;;;;;;5106433;28;20468;-66
2023/09/18 08:32:09;;;;;;;10.82;4.90;;;25.00;99.90;;;;;;5094758;28;20043;-67
2023/09/18 08:34:35;;;;;;;8.68;4.22;;;25.30;99.90;;;;;;5097502;28;20028;-67
2023/09/18 08:37:02;;;;;;;8.27;3.70;;;26.00;99.90;;;;;;5106636;28;20136;-66
2023/09/18 08:39:28;;;;;;;6.22;2.75;;;26.30;99.90;;;;;;5097921;28;20015;-66
2023/09/18 08:41:59;;;;;;;6.10;2.60;;;26.60;99.90;;;;;;5093851;28;20036;-67
2023/09/18 08:44:27;;;;;;;7.68;2.88;;;26.70;99.90;;;;;;5098174;28;20034;-66
2023/09/18 08:46:54;;;;;;;8.85;2.63;;;26.70;99.90;;;;;;5096369;28;20107;-66
2023/09/18 08:49:22;;;;;;;8.18;2.75;;;26.40;99.90;;;;;;5107667;28;20447;-67
2023/09/18 08:51:49;;;;;;;6.40;2.70;;;25.90;99.90;;;;;;5096718;28;20032;-67
2023/09/18 08:54:15;;;;;;;7.72;2.60;;;25.40;99.90;;;;;;5099742;28;20031;-66
2023/09/18 08:56:41;;;;;;;10.27;2.92;;;25.20;99.90;;;;;;5107353;28;20062;-66
2023/09/18 08:59:07;;;;;;;6.13;2.40;;;25.20;99.90;;;;;;5095624;28;20056;-67
2023/09/18 09:01:32;;;;;;;5.85;2.45;;;25.70;99.90;;;;;;5097681;28;20024;-67
2023/09/18 09:03:58;;;;;;;7.15;3.20;;;25.80;99.90;;;;;;5101122;28;20115;-68
2023/09/18 09:06:23;;;;;;;6.75;2.45;;;26.00;99.90;;;;;;5086243;28;20024;-67
2023/09/18 09:08:51;;;;;;;6.07;3.13;;;26.20;99.90;;;;;;5101179;28;20024;-67
2023/09/18 09:11:17;;;;;;;7.78;2.78;;;26.30;99.90;;;;;;5098934;28;20024;-66
2023/09/18 09:13:42;;;;;;;7.85;2.85;;;26.20;99.90;;;;;;5102802;28;20028;-66
2023/09/18 09:16:11;;;;;;;7.53;3.22;;;25.80;99.90;;;;;;5102348;28;20115;-67
2023/09/18 09:18:50;;;;;;;7.68;3.10;;;25.70;99.90;;;;;;5107072;28;20024;-66
2023/09/18 09:21:16;;;;;;;9.77;3.38;;;25.40;99.90;;;;;;5095972;28;20047;-67
2023/09/18 09:23:45;;;;;;;7.03;3.20;;;25.30;99.90;;;;;;5105128;28;20446;-67
2023/09/18 09:26:15;;;;;;;6.90;3.20;;;25.30;99.90;;;;;;5092348;28;20024;-66
2023/09/18 09:28:43;;;;;;;7.75;3.47;;;25.20;99.90;;;;;;5110591;28;20432;-66
2023/09/18 09:31:10;;;;;;;8.30;2.80;;;25.10;99.90;;;;;;5099374;28;20032;-66
2023/09/18 09:33:40;;;;;;;5.53;2.72;;;24.70;99.90;;;;;;5109582;28;20417;-67
2023/09/18 09:36:06;;;;;;;7.82;3.53;;;24.40;99.90;;;;;;5106351;28;20034;-66
2023/09/18 09:38:33;;;;;;;7.00;3.63;;;24.40;99.90;;;;;;5093664;28;20024;-66
2023/09/18 09:41:00;;;;;;;12.30;3.45;;;24.20;99.90;;;;;;5098675;28;20085;-67
2023/09/18 09:43:27;;;;;;;10.77;3.40;;;24.20;99.90;;;;;;5111858;28;20097;-67
2023/09/18 09:46:02;;;;;;;5.90;3.47;;;24.50;99.90;;;;;;5103691;28;20023;-66
2023/09/18 09:48:31;;;;;;;7.95;3.00;;;24.90;99.90;;;;;;5105576;28;20032;-67
2023/09/18 09:51:00;;;;;;;6.78;2.78;;;25.20;99.90;;;;;;5099947;28;20122;-68
2023/09/18 09:53:50;;;;;;;4.43;2.80;;;25.40;99.90;;;;;;5107925;28;20028;-66
2023/09/18 09:56:21;;;;;;;5.05;2.58;;;25.30;99.90;;;;;;5100014;28;20038;-66
2023/09/18 09:59:02;;;;;;;8.18;3.72;;;25.00;99.90;;;;;;5097807;28;20302;-68
2023/09/18 10:01:30;;;;;;;7.47;3.40;;;25.00;99.90;;;;;;5080430;28;20380;-67
2023/09/18 10:03:57;;;;;;;7.20;3.38;;;25.50;99.90;;;;;;5103546;28;20036;-67
2023/09/18 10:06:23;;;;;;;6.18;2.90;;;25.90;99.90;;;;;;5115617;28;20031;-67
2023/09/18 10:08:48;;;;;;;6.53;3.10;;;26.30;99.90;;;;;;5099384;28;20039;-67
2023/09/18 10:11:17;;;;;;;8.32;3.20;;;26.50;99.90;;;;;;5108623;28;20028;-66
2023/09/18 10:13:49;;;;;;;5.22;2.58;;;27.10;99.90;;;;;;5102159;28;20180;-67
2023/09/18 10:16:18;;;;;;;;;;;27.50;99.90;;;;;;5103030;28;20426;-66
2023/09/18 10:19:03;;;;;;;7.82;2.30;;;27.40;99.90;;;;;;5110621;28;19914;-66
2023/09/18 10:21:41;;;;;;;6.25;2.25;;;27.60;99.90;;;;;;5084916;28;20023;-66
2023/09/18 10:24:18;;;;;;;6.43;3.03;;;27.40;99.90;;;;;;5104552;28;20081;-67
2023/09/18 10:26:56;;;;;;;5.97;3.00;;;27.10;99.90;;;;;;5107569;28;20222;-66
2023/09/18 10:29:23;;;;;;;5.85;3.00;;;26.90;99.90;;;;;;5082065;28;20055;-67
2023/09/18 10:31:51;;;;;;;5.40;2.92;;;27.10;99.90;;;;;;5102614;28;21936;-67
2023/09/18 10:34:18;;;;;;;5.57;3.13;;;27.10;99.90;;;;;;5098263;28;20024;-65
2023/09/18 10:36:48;;;;;;;5.95;3.00;;;27.00;99.90;;;;;;5110278;28;20032;-66
2023/09/18 10:39:19;;;;;;;4.28;2.92;;;26.80;99.90;;;;;;5096253;28;20088;-66
2023/09/18 10:41:46;;;;;;;5.07;2.17;;;26.70;99.90;;;;;;5107126;28;20019;-67
2023/09/18 10:44:13;;;;;;;6.20;2.88;;;27.30;99.80;;;;;;5105887;28;20046;-67
2023/09/18 10:46:39;;;;;;;10.13;2.85;;;27.60;99.70;;;;;;5113884;28;20123;-67
2023/09/18 10:49:05;;;;;;;5.00;2.42;;;27.30;99.90;;;;;;5097336;28;20066;-66
2023/09/18 10:51:33;;;;;;;5.93;3.08;;;27.20;99.90;;;;;;5108715;28;20088;-66
2023/09/18 10:53:59;;;;;;;8.07;2.80;;;26.60;99.90;;;;;;5103296;28;20116;-66
2023/09/18 10:56:26;;;;;;;5.68;3.05;;;26.10;99.90;;;;;;5106805;27;20024;-66
2023/09/18 10:59:03;;;;;;;5.78;3.03;;;25.90;99.90;;;;;;5114334;28;20016;-65
2023/09/18 11:01:30;;;;;;;5.70;3.35;;;25.90;99.90;;;;;;5088899;28;20035;-66
2023/09/18 11:04:01;;;;;;;7.57;2.85;;;25.70;99.90;;;;;;5099676;28;20055;-66
2023/09/18 11:06:27;;;;;;;8.23;3.70;;;25.70;99.90;;;;;;5104089;28;20032;-66
2023/09/18 11:09:04;;;;;;;11.38;4.57;;;25.60;99.90;;;;;;5113833;28;20384;-67
2023/09/18 11:11:32;;;;;;;6.85;3.92;;;25.40;99.90;;;;;;5099098;28;20024;-66
2023/09/18 11:13:59;;;;;;;12.20;6.03;;;25.30;99.90;;;;;;5110860;28;20383;-66
2023/09/18 11:16:28;;;;;;;11.20;4.68;;;25.30;99.90;;;;;;5106514;28;20020;-67
2023/09/18 11:19:03;;;;;;;7.20;3.22;;;25.10;99.90;;;;;;5097146;28;20036;-66
2023/09/18 11:21:31;;;;;;;8.18;3.22;;;25.10;99.90;;;;;;5108917;28;20039;-67
2023/09/18 11:24:06;;;;;;;9.63;4.55;;;25.60;99.90;;;;;;5102206;28;20032;-67
2023/09/18 11:26:36;;;;;;;8.05;4.10;;;25.90;99.90;;;;;;5099907;28;20038;-67
2023/09/18 11:29:10;;;;;;;8.73;4.15;;;26.10;99.90;;;;;;5097745;28;20027;-66
2023/09/18 11:31:56;;;;;;;9.32;3.20;;;26.10;99.90;;;;;;5099855;28;20060;-66
2023/09/18 11:34:28;;;;;;;10.60;3.50;;;26.20;99.90;;;;;;5101347;28;20400;-66
2023/09/18 11:36:54;;;;;;;9.82;3.38;;;26.20;99.90;;;;;;5110066;28;20409;-66
2023/09/18 11:39:38;;;;;;;6.22;3.10;;;26.50;99.90;;;;;;5096940;28;20023;-66
2023/09/18 11:42:26;;;;;;;6.60;2.40;;;26.50;99.90;;;;;;5098963;28;20028;-67
2023/09/18 11:44:52;;;;;;;6.72;3.20;;;26.20;99.90;;;;;;5096814;28;20032;-65
2023/09/18 11:47:23;;;;;;;11.70;3.30;;;25.90;99.90;;;;;;5086374;28;20024;-66
2023/09/18 11:49:59;;;;;;;9.93;3.45;;;25.50;99.90;;;;;;5111593;28;20048;-66
2023/09/18 11:52:30;;;;;;;6.25;3.08;;;25.10;99.90;;;;;;5099673;28;20048;-65
2023/09/18 11:54:57;;;;;;;11.32;3.67;;;24.80;99.90;;;;;;5097627;28;20020;-66
2023/09/18 11:57:23;;;;;;;6.07;2.58;;;24.60;99.90;;;;;;5101899;28;20032;-65
2023/09/18 11:59:50;;;;;;;6.50;3.00;;;24.40;99.90;;;;;;5092899;28;20414;-66
2023/09/18 12:02:36;;;;;;;7.10;3.15;;;24.40;99.90;;;;;;5093405;28;20101;-67
2023/09/18 12:05:18;;;;;;;8.57;2.80;;;24.50;99.90;;;;;;5095761;28;20085;-67
2023/09/18 12:07:45;;;;;;;4.30;2.40;;;24.90;99.90;;;;;;5093570;28;20032;-64
2023/09/18 12:10:17;;;;;;;3.97;2.33;;;25.10;99.90;;;;;;5092556;28;20020;-66
2023/09/18 12:12:43;;;;;;;5.22;2.40;;;25.00;99.90;;;;;;5090310;28;20545;-65
2023/09/18 12:15:17;;;;;;;7.38;2.55;;;24.90;99.90;;;;;;5088468;28;20032;-64
2023/09/18 12:17:43;;;;;;;6.97;2.80;;;25.00;99.90;;;;;;5091720;28;20031;-67
2023/09/18 12:20:18;;;;;;;5.75;2.45;;;25.10;99.90;;;;;;5088528;28;20024;-66
2023/09/18 12:22:48;;;;;;;4.35;2.88;;;25.10;99.90;;;;;;5090909;28;20028;-67
2023/09/18 12:25:18;;;;;;;8.38;3.17;;;24.90;99.90;;;;;;5092613;28;20177;-67
2023/09/18 12:27:45;;;;;;;6.32;3.20;;;24.60;99.90;;;;;;5092770;28;20036;-67
2023/09/18 12:30:14;;;;;;;6.25;3.45;;;24.40;99.90;;;;;;5093722;28;20032;-67
2023/09/18 12:32:40;;;;;;;7.22;3.30;;;24.30;99.90;;;;;;5090017;28;20040;-65
2023/09/18 12:35:07;;;;;;;9.30;3.40;;;24.10;99.90;;;;;;5092125;28;20020;-67